createdAt,value
2019-05-25T00:00:44.383Z,14.90
2019-05-25T00:04:49.066Z,14.80
2019-05-25T00:08:53.672Z,14.80
2019-05-25T00:12:58.348Z,14.70
2019-05-25T00:17:02.977Z,14.70
2019-05-25T00:21:07.640Z,14.20
2019-05-25T00:25:12.387Z,13.90
2019-05-25T00:29:16.992Z,13.70
2019-05-25T00:33:21.653Z,13.60
2019-05-25T00:37:26.285Z,13.50
2019-05-25T00:41:30.988Z,13.40
2019-05-25T00:45:35.662Z,13.30
2019-05-25T00:49:40.289Z,13.20
2019-05-25T00:53:44.922Z,13.00
2019-05-25T00:57:49.573Z,13.00
2019-05-25T01:01:54.245Z,12.90
2019-05-25T01:05:58.886Z,12.80
2019-05-25T01:10:03.559Z,12.80
2019-05-25T01:14:08.219Z,12.70
2019-05-25T01:18:12.841Z,12.70
2019-05-25T01:22:17.525Z,12.50
2019-05-25T01:26:22.179Z,12.50
2019-05-25T01:30:26.815Z,12.60
2019-05-25T01:34:31.489Z,12.50
2019-05-25T01:38:36.122Z,12.40
2019-05-25T01:42:40.842Z,12.50
2019-05-25T01:46:45.455Z,12.50
2019-05-25T01:50:50.093Z,12.50
2019-05-25T01:54:59.723Z,12.50
2019-05-25T01:59:01.033Z,12.60
2019-05-25T02:03:05.697Z,12.60
2019-05-25T02:07:10.403Z,12.60
2019-05-25T02:11:14.981Z,12.60
2019-05-25T02:15:19.611Z,12.60
2019-05-25T02:19:24.255Z,12.60
2019-05-25T02:23:28.963Z,12.60
2019-05-25T02:27:33.562Z,12.60
2019-05-25T02:31:38.224Z,12.60
2019-05-25T02:35:42.926Z,12.60
2019-05-25T02:39:47.546Z,12.70
2019-05-25T02:43:52.215Z,12.70
2019-05-25T02:47:57.203Z,12.70
2019-05-25T02:52:01.848Z,12.70
2019-05-25T02:56:06.542Z,12.70
2019-05-25T03:00:11.790Z,12.70
2019-05-25T03:04:16.558Z,12.70
2019-05-25T03:08:21.436Z,12.70
2019-05-25T03:12:26.164Z,12.70
2019-05-25T03:16:30.818Z,12.70
2019-05-25T03:20:35.472Z,12.70
2019-05-25T03:24:40.089Z,12.70
2019-05-25T03:28:44.759Z,12.70
2019-05-25T03:32:49.553Z,12.70
2019-05-25T03:36:54.163Z,12.80
2019-05-25T03:40:58.838Z,12.80
2019-05-25T03:45:03.482Z,12.80
2019-05-25T03:49:08.089Z,12.80
2019-05-25T03:53:12.763Z,12.90
2019-05-25T03:57:17.426Z,12.90
2019-05-25T04:01:22.077Z,12.90
2019-05-25T04:05:26.753Z,12.90
2019-05-25T04:09:31.424Z,12.90
2019-05-25T04:13:36.177Z,12.90
2019-05-25T04:17:40.905Z,12.90
2019-05-25T04:21:45.557Z,13.40
2019-05-25T04:25:50.362Z,12.90
2019-05-25T04:29:55.014Z,12.90
2019-05-25T04:33:59.722Z,12.90
2019-05-25T04:38:04.507Z,12.90
2019-05-25T04:42:10.078Z,12.80
2019-05-25T04:46:14.781Z,12.90
2019-05-25T04:50:19.637Z,12.90
2019-05-25T04:54:24.298Z,12.90
2019-05-25T04:58:28.980Z,12.90
2019-05-25T05:02:33.650Z,12.90
2019-05-25T05:06:38.307Z,13.00
2019-05-25T05:10:43.080Z,13.00
2019-05-25T05:14:47.722Z,13.00
2019-05-25T05:18:52.369Z,13.00
2019-05-25T05:22:57.093Z,13.00
2019-05-25T05:27:01.681Z,13.00
2019-05-25T05:31:22.465Z,13.10
2019-05-25T05:35:12.791Z,13.10
2019-05-25T05:39:17.676Z,13.10
2019-05-25T05:43:22.824Z,13.20
2019-05-25T05:47:29.084Z,13.20
2019-05-25T05:51:35.896Z,13.20
2019-05-25T05:55:40.412Z,13.20
2019-05-25T05:59:44.972Z,13.20
2019-05-25T06:03:58.432Z,13.30
2019-05-25T06:08:02.982Z,13.20
2019-05-25T06:12:07.543Z,13.30
2019-05-25T06:16:12.049Z,13.30
2019-05-25T06:20:16.800Z,13.40
2019-05-25T06:24:21.345Z,13.40
2019-05-25T06:28:25.892Z,13.50
2019-05-25T06:32:30.465Z,13.50
2019-05-25T06:36:34.993Z,13.50
2019-05-25T06:40:39.535Z,13.60
2019-05-25T06:44:46.081Z,13.60
2019-05-25T06:48:50.781Z,13.60
2019-05-25T06:52:57.839Z,13.70
2019-05-25T06:57:01.702Z,13.80
2019-05-25T07:01:06.247Z,13.90
2019-05-25T07:05:11.858Z,13.90
2019-05-25T07:09:16.392Z,14.00
2019-05-25T07:13:20.967Z,14.00
2019-05-25T07:17:25.484Z,14.10
2019-05-25T07:21:30.040Z,14.10
2019-05-25T07:25:34.597Z,14.20
2019-05-25T07:29:39.140Z,14.40
2019-05-25T07:33:43.699Z,14.50
2019-05-25T07:37:48.237Z,14.70
2019-05-25T07:41:53.869Z,14.60
2019-05-25T07:45:59.828Z,14.80
2019-05-25T07:50:04.720Z,14.80
2019-05-25T07:54:09.300Z,14.80
2019-05-25T07:58:18.163Z,14.80
2019-05-25T08:02:20.016Z,15.20
2019-05-25T08:06:24.588Z,15.60
2019-05-25T08:10:29.335Z,16.00
2019-05-25T08:14:33.926Z,16.30
2019-05-25T08:18:38.438Z,16.50
2019-05-25T08:22:42.995Z,16.60
2019-05-25T08:26:47.536Z,16.60
2019-05-25T08:30:52.105Z,16.70
2019-05-25T08:34:56.667Z,16.90
2019-05-25T08:39:01.176Z,16.80
2019-05-25T08:43:05.828Z,16.90
2019-05-25T08:47:10.373Z,17.30
2019-05-25T08:51:14.962Z,17.90
2019-05-25T08:55:19.508Z,18.10
2019-05-25T08:59:24.015Z,18.10
2019-05-25T09:03:28.565Z,17.60
2019-05-25T09:07:33.102Z,17.50
2019-05-25T09:11:37.755Z,17.40
2019-05-25T09:15:42.237Z,17.20
2019-05-25T09:19:46.779Z,17.10
2019-05-25T09:23:51.320Z,16.90
2019-05-25T09:27:55.866Z,16.80
2019-05-25T09:32:00.397Z,16.70
2019-05-25T09:36:04.961Z,16.60
2019-05-25T09:40:09.692Z,16.60
2019-05-25T09:44:14.230Z,16.50
2019-05-25T09:48:18.868Z,16.50
2019-05-25T09:52:23.457Z,16.60
2019-05-25T09:56:28.001Z,16.70
2019-05-25T10:00:32.513Z,16.70
2019-05-25T10:04:37.063Z,16.70
2019-05-25T10:08:41.625Z,16.70
2019-05-25T10:12:46.587Z,16.60
2019-05-25T10:16:51.143Z,16.60
2019-05-25T10:20:55.637Z,16.60
2019-05-25T10:25:00.181Z,16.50
2019-05-25T10:29:04.725Z,16.40
2019-05-25T10:33:09.274Z,16.40
2019-05-25T10:37:13.824Z,16.40
2019-05-25T10:41:18.327Z,16.40
2019-05-25T10:45:22.873Z,16.30
2019-05-25T10:49:27.429Z,16.40
2019-05-25T10:53:32.029Z,16.40
2019-05-25T10:57:36.584Z,16.40
2019-05-25T11:01:41.097Z,16.40
2019-05-25T11:05:45.633Z,16.40
2019-05-25T11:09:50.180Z,16.50
2019-05-25T11:13:54.729Z,16.40
2019-05-25T11:17:59.286Z,16.50
2019-05-25T11:22:03.777Z,16.50
2019-05-25T11:26:08.317Z,16.60
2019-05-25T11:30:14.874Z,16.70
2019-05-25T11:34:19.427Z,16.60
2019-05-25T11:38:23.972Z,16.70
2019-05-25T11:42:28.481Z,16.80
2019-05-25T11:46:33.050Z,16.90
2019-05-25T11:50:37.602Z,16.90
2019-05-25T11:54:42.190Z,16.90
2019-05-25T11:58:47.864Z,16.90
2019-05-25T12:02:52.485Z,16.90
2019-05-25T12:06:57.027Z,16.90
2019-05-25T12:11:01.585Z,16.80
2019-05-25T12:15:06.576Z,16.80
2019-05-25T12:19:14.715Z,16.80
2019-05-25T12:23:17.265Z,16.80
2019-05-25T12:27:21.815Z,16.80
2019-05-25T12:31:26.340Z,16.90
2019-05-25T12:35:30.881Z,16.90
2019-05-25T12:39:35.444Z,16.90
2019-05-25T12:43:39.959Z,17.00
2019-05-25T12:47:44.500Z,17.00
2019-05-25T12:51:49.073Z,17.10
2019-05-25T12:55:53.616Z,17.20
2019-05-25T13:00:13.867Z,17.30
2019-05-25T13:04:04.319Z,17.30
2019-05-25T13:08:08.863Z,17.40
2019-05-25T13:12:13.473Z,17.40
2019-05-25T13:16:18.109Z,17.50
2019-05-25T13:20:22.618Z,17.70
2019-05-25T13:24:27.167Z,17.80
2019-05-25T13:28:31.704Z,18.00
2019-05-25T13:32:36.249Z,18.20
2019-05-25T13:36:40.799Z,18.20
2019-05-25T13:40:45.366Z,18.20
2019-05-25T13:44:49.872Z,18.30
2019-05-25T13:48:54.572Z,18.40
2019-05-25T13:52:59.160Z,18.60
2019-05-25T13:57:03.691Z,18.60
2019-05-25T14:01:08.253Z,18.60
2019-05-25T14:05:15.048Z,18.60
2019-05-25T14:09:19.588Z,18.60
2019-05-25T14:13:24.133Z,18.60
2019-05-25T14:17:28.677Z,18.70
2019-05-25T14:21:33.240Z,18.80
2019-05-25T14:25:37.739Z,18.90
2019-05-25T14:29:42.269Z,19.00
2019-05-25T14:33:46.902Z,19.20
2019-05-25T14:37:51.492Z,19.30
2019-05-25T14:41:56.056Z,19.30
2019-05-25T14:46:00.600Z,19.20
2019-05-25T14:50:05.508Z,19.20
2019-05-25T14:54:10.091Z,19.00
2019-05-25T14:58:14.632Z,19.00
2019-05-25T15:02:19.182Z,18.90
2019-05-25T15:06:23.686Z,18.90
2019-05-25T15:10:28.438Z,18.90
2019-05-25T15:14:32.976Z,18.90
2019-05-25T15:18:37.520Z,18.80
2019-05-25T15:22:42.065Z,18.80
2019-05-25T15:26:46.567Z,18.80
2019-05-25T15:30:51.112Z,18.70
2019-05-25T15:34:55.656Z,18.70
2019-05-25T15:39:00.197Z,18.70
2019-05-25T15:43:04.711Z,18.70
2019-05-25T15:47:09.261Z,18.70
2019-05-25T15:51:13.811Z,18.80
2019-05-25T15:55:18.469Z,18.80
2019-05-25T15:59:23.777Z,18.70
2019-05-25T16:03:28.509Z,18.70
2019-05-25T16:07:33.249Z,18.70
2019-05-25T16:11:37.809Z,18.60
2019-05-25T16:15:42.378Z,18.60
2019-05-25T16:19:46.920Z,18.60
2019-05-25T16:23:51.475Z,18.60
2019-05-25T16:27:56.005Z,18.60
2019-05-25T16:32:00.634Z,18.70
2019-05-25T16:36:05.226Z,18.70
2019-05-25T16:40:10.666Z,18.80
2019-05-25T16:44:15.221Z,18.80
2019-05-25T16:48:19.754Z,18.80
2019-05-25T16:52:24.347Z,18.90
2019-05-25T16:56:28.895Z,18.80
2019-05-25T17:00:33.451Z,18.90
2019-05-25T17:04:38.022Z,18.90
2019-05-25T17:08:42.527Z,18.90
2019-05-25T17:12:47.152Z,19.00
2019-05-25T17:16:51.731Z,19.00
2019-05-25T17:20:56.270Z,19.00
2019-05-25T17:25:00.785Z,19.00
2019-05-25T17:29:05.332Z,19.00
2019-05-25T17:33:09.923Z,19.00
2019-05-25T17:37:14.476Z,18.90
2019-05-25T17:41:19.018Z,18.90
2019-05-25T17:45:23.572Z,18.80
2019-05-25T17:49:28.260Z,18.70
2019-05-25T17:53:32.844Z,18.60
2019-05-25T17:57:37.389Z,18.60
2019-05-25T18:01:41.945Z,18.50
2019-05-25T18:05:47.379Z,18.40
2019-05-25T18:09:51.890Z,18.40
2019-05-25T18:13:56.474Z,18.30
2019-05-25T18:18:01.013Z,18.30
2019-05-25T18:22:05.665Z,18.30
2019-05-25T18:26:10.213Z,18.30
2019-05-25T18:30:15.111Z,18.20
2019-05-25T18:34:22.353Z,18.20
2019-05-25T18:38:25.935Z,18.20
2019-05-25T18:42:30.850Z,18.10
2019-05-25T18:46:35.421Z,18.00
2019-05-25T18:50:39.928Z,17.90
2019-05-25T18:54:44.504Z,17.80
2019-05-25T18:58:49.057Z,17.80
2019-05-25T19:02:53.591Z,17.70
2019-05-25T19:06:58.136Z,17.60
2019-05-25T19:11:02.642Z,17.50
2019-05-25T19:15:07.968Z,17.40
2019-05-25T19:19:12.505Z,17.30
2019-05-25T19:23:17.036Z,17.20
2019-05-25T19:27:21.585Z,17.10
2019-05-25T19:31:26.101Z,17.00
2019-05-25T19:35:30.711Z,16.80
2019-05-25T19:39:35.202Z,16.70
2019-05-25T19:43:39.781Z,16.60
2019-05-25T19:47:44.325Z,16.40
2019-05-25T19:51:48.944Z,16.30
2019-05-25T19:55:53.527Z,16.20
2019-05-25T19:59:58.067Z,16.10
2019-05-25T20:04:02.676Z,15.90
2019-05-25T20:08:07.237Z,15.80
2019-05-25T20:12:11.752Z,15.70
2019-05-25T20:16:16.300Z,15.60
2019-05-25T20:20:21.135Z,15.50
2019-05-25T20:24:25.679Z,15.40
2019-05-25T20:28:30.215Z,15.20
2019-05-25T20:32:34.712Z,15.10
2019-05-25T20:36:39.287Z,15.00
2019-05-25T20:40:43.825Z,14.90
2019-05-25T20:44:48.395Z,14.80
2019-05-25T20:48:52.942Z,14.70
2019-05-25T20:52:57.489Z,14.60
2019-05-25T20:57:02.030Z,14.50
2019-05-25T21:01:06.584Z,14.40
2019-05-25T21:05:11.135Z,14.30
2019-05-25T21:09:15.677Z,14.20
2019-05-25T21:13:20.282Z,14.10
2019-05-25T21:17:24.821Z,14.00
2019-05-25T21:21:29.452Z,14.00
2019-05-25T21:25:34.068Z,13.90
2019-05-25T21:29:38.669Z,13.80
2019-05-25T21:33:43.194Z,13.70
2019-05-25T21:37:47.757Z,13.60
2019-05-25T21:41:52.353Z,13.50
2019-05-25T21:45:56.940Z,13.80
2019-05-25T21:50:01.957Z,14.00
2019-05-25T21:54:06.565Z,14.10
2019-05-25T21:58:11.149Z,14.10
2019-05-25T22:02:15.728Z,14.10
2019-05-25T22:06:24.386Z,14.10
2019-05-25T22:10:26.513Z,14.10
2019-05-25T22:14:31.083Z,14.00
2019-05-25T22:18:35.645Z,13.90
2019-05-25T22:22:40.379Z,13.80
2019-05-25T22:26:44.955Z,13.80
2019-05-25T22:30:49.547Z,13.70
2019-05-25T22:34:54.084Z,13.70
2019-05-25T22:38:58.690Z,13.70
2019-05-25T22:43:03.295Z,13.60
2019-05-25T22:47:07.952Z,13.60
2019-05-25T22:51:12.514Z,13.50
2019-05-25T22:55:17.298Z,13.40
2019-05-25T22:59:21.880Z,13.40
2019-05-25T23:03:26.453Z,13.40
2019-05-25T23:07:31.020Z,13.30
2019-05-25T23:11:35.602Z,13.30
2019-05-25T23:15:40.169Z,13.30
2019-05-25T23:19:44.728Z,13.20
2019-05-25T23:23:49.401Z,13.20
2019-05-25T23:27:53.981Z,13.10
2019-05-25T23:31:58.576Z,13.10
2019-05-25T23:36:03.109Z,13.00
2019-05-25T23:40:07.852Z,13.00
2019-05-25T23:44:12.410Z,13.00
2019-05-25T23:48:16.978Z,12.90
2019-05-25T23:52:21.614Z,12.90
2019-05-25T23:56:26.202Z,12.80
